Houari Boumediene Airport

DAAG · Alger, Algérie

METAR anciennes DAAG · Aéroport d'Alger Houari Boumediene

Tu vois ci-dessous les METAR des derniers jours. Sélectionne une année pour parcourir les METAR plus anciens, à partir de l'année 2007.

1 décembre 2022

Temps Code Temps Temp. Vue Base cloud Vent METAR/SPECI
10:00
V
12 °C 10 km+ 9.000 ft Var Var 2 kt METAR DAAG 010900Z VRB02KT 9999 FEW023 BKN090 12/10 Q1014
09:30
V
11 °C 10 km+ 9.000 ft Var Var 1 kt METAR DAAG 010830Z VRB01KT 9999 FEW023 BKN090 11/10 Q1014
09:00
M
9 °C 7 km 7.000 ft 190° 190° 2 kt METAR DAAG 010800Z 19002KT 7000 FEW023 BKN070 09/08 Q1014
08:30
M
7 °C 7 km 7.000 ft Var 000° 0 kt METAR DAAG 010730Z 00000KT 7000 FEW023 BKN070 07/07 Q1014
08:00
M
7 °C 7 km 8.000 ft Var Var 2 kt METAR DAAG 010700Z VRB02KT 7000 FEW023 BKN080 07/07 Q1014
07:30
V
7 °C 9 km 8.000 ft Var Var 2 kt METAR DAAG 010630Z VRB02KT 9000 FEW023 BKN080 07/06 Q1014
07:00
V
7 °C 10 km+ - 070° 070° 5 kt METAR DAAG 010600Z 07005KT 9999 FEW023 SCT080 07/06 Q1014

30 novembre 2022

Temps Code Temps Temp. Vue Base cloud Vent METAR/SPECI
17:00
V
17 °C 10 km+ - 180° 180° 2 kt METAR DAAG 301600Z 18002KT 9999 FEW023TCU 17/07 Q1016
16:30
V
18 °C 10 km+ - Var Var 2 kt METAR DAAG 301530Z VRB02KT 9999 FEW023TCU SCT080 18/06 Q1016
16:00
V
17 °C 10 km+ - 260° 260° 3 kt METAR DAAG 301500Z 26003KT 210V310 9999 FEW023TCU SCT080 17/09 Q1016
15:30
V
17 °C 10 km+ - 250° 250° 4 kt METAR DAAG 301430Z 25004KT 220V300 9999 FEW023TCU SCT080 17/09 Q1016
15:00
V
16 °C 10 km+ - 220° 220° 4 kt METAR DAAG 301400Z 22004KT 190V270 9999 FEW023TCU SCT080 16/10 Q1016
14:30
V
16 °C 10 km+ - 240° 240° 6 kt METAR DAAG 301330Z 24006KT 210V280 9999 FEW023TCU SCT080 16/11 Q1016
14:00
V
15 °C 10 km+ - 230° 230° 7 kt METAR DAAG 301300Z 23007KT 190V250 9999 FEW023TCU FEW026CB SCT080 15/10 Q1017
13:30
V
15 °C 10 km+ - 230° 230° 9 kt METAR DAAG 301230Z 23009KT 200V260 9999 FEW023TCU FEW026CB SCT080 15/11 Q1017
13:00
V
15 °C 10 km+ - 240° 240° 10 kt METAR DAAG 301200Z 24010KT 9999 FEW023TCU FEW026CB SCT080 15/11 Q1018
12:30
V
15 °C 10 km+ - 240° 240° 10 kt METAR DAAG 301130Z 24010KT 9999 FEW023TCU FEW026CB SCT080 15/11 Q1018
12:00
V
15 °C 10 km+ - 240° 240° 8 kt METAR DAAG 301100Z 24008KT 9999 FEW023TCU FEW026CB SCT080 15/10 Q1018
11:30
V
14 °C 10 km+ - 230° 230° 8 kt METAR DAAG 301030Z 23008KT 200V260 9999 SCT023TCU FEW026CB SCT080 14/11 Q1018
11:00
V
13 °C 10 km+ - 220° 220° 6 kt METAR DAAG 301000Z 22006KT 180V240 9999 SCT023TCU FEW026CB SCT080 13/10 Q1018
10:30
V
12 °C 10 km+ - 200° 200° 5 kt METAR DAAG 300930Z 20005KT 180V240 9999 SCT023TCU FEW026CB SCT080 12/11 Q1018
10:00
V
11 °C 10 km+ 4.000 ft 200° 200° 5 kt METAR DAAG 300900Z 20005KT 9999 -RA SCT023TCU FEW026CB BKN040 11/10 Q1018
09:30
V
11 °C 10 km+ 4.000 ft 200° 200° 3 kt METAR DAAG 300830Z 20003KT 170V240 9999 -RA SCT023TCU FEW026CB BKN040 11/10 Q1018
09:00
V
11 °C 8 km 4.000 ft Var Var 2 kt METAR DAAG 300800Z VRB02KT 8000 -RA SCT023 FEW026CB BKN040 11/10 Q1018
08:30
V
11 °C 10 km+ 4.600 ft 220° 220° 5 kt METAR DAAG 300730Z 22005KT 9999 SCT023 FEW026CB BKN046 11/09 Q1017
08:00
V
11 °C 8 km 4.600 ft 230° 230° 7 kt METAR DAAG 300700Z 23007KT 8000 SCT023 FEW026CB BKN046 11/10 Q1017 RERA
07:30
M
12 °C 7 km 4.600 ft 190° 190° 5 kt METAR DAAG 300630Z 19005KT 7000 RA SCT023 FEW026CB BKN046 12/10 Q1017
07:00
V
11 °C 10 km+ - 150° 150° 4 kt METAR DAAG 300600Z 15004KT 110V170 9999 -RA SCT023 SCT040 11/08 Q1017
06:30
V
11 °C 10 km+ - 140° 140° 5 kt METAR DAAG 300530Z 14005KT 100V190 9999 -RA FEW023 SCT080 11/08 Q1017
06:00
V
10 °C 10 km+ - 050° 050° 9 kt METAR DAAG 300500Z 05009KT 9999 -RA FEW023 SCT080 10/07 Q1017
05:30
V
12 °C 10 km+ - 230° 230° 8 kt METAR DAAG 300430Z 23008KT 9999 FEW023 SCT080 12/07 Q1016
05:00
V
12 °C 10 km+ - 240° 240° 10 kt METAR DAAG 300400Z 24010KT 9999 FEW023 SCT080 12/07 Q1016
04:30
V
12 °C 10 km+ - 230° 230° 8 kt METAR DAAG 300330Z 23008KT 9999 FEW023 SCT080 12/07 Q1017
04:00
V
12 °C 10 km+ - 220° 220° 7 kt METAR DAAG 300300Z 22007KT 9999 FEW023 SCT080 12/07 Q1017
03:30
V
11 °C 10 km+ - 220° 220° 7 kt METAR DAAG 300230Z 22007KT 9999 FEW023 11/07 Q1017
03:00
V
10 °C 10 km+ - 210° 210° 6 kt METAR DAAG 300200Z 21006KT 9999 FEW023 10/07 Q1017
02:30
V
10 °C 10 km+ - 210° 210° 5 kt METAR DAAG 300130Z 21005KT 9999 FEW023 10/08 Q1017
02:00
V
11 °C 10 km+ - 220° 220° 6 kt METAR DAAG 300100Z 22006KT 9999 FEW023 11/08 Q1017
01:30
V
11 °C 10 km+ - 230° 230° 8 kt METAR DAAG 300030Z 23008KT 9999 FEW023 11/08 Q1017
01:00
V
12 °C 10 km+ - 230° 230° 7 kt METAR DAAG 300000Z 23007KT 9999 FEW023 12/09 Q1017
00:30
V
12 °C 10 km+ - 230° 230° 6 kt METAR DAAG 292330Z 23006KT 9999 SCT023 12/09 Q1017
00:00
V
12 °C 10 km+ - 220° 220° 9 kt METAR DAAG 292300Z 22009KT 9999 SCT023 12/09 Q1018

29 novembre 2022

Temps Code Temps Temp. Vue Base cloud Vent METAR/SPECI
23:30
V
12 °C 10 km+ - 220° 220° 7 kt METAR DAAG 292230Z 22007KT 9999 SCT023 12/09 Q1018
23:00
V
11 °C 10 km+ - 210° 210° 6 kt METAR DAAG 292200Z 21006KT 9999 SCT023 11/08 Q1018
22:30
V
12 °C 10 km+ - 230° 230° 7 kt METAR DAAG 292130Z 23007KT 9999 SCT023 12/08 Q1018
22:00
V
12 °C 10 km+ - 220° 220° 5 kt METAR DAAG 292100Z 22005KT 9999 SCT023 12/08 Q1018
21:30
V
12 °C 10 km+ - 220° 220° 5 kt METAR DAAG 292030Z 22005KT 9999 SCT023 12/08 Q1018
21:00
V
12 °C 10 km+ - 230° 230° 6 kt METAR DAAG 292000Z 23006KT 9999 SCT023 12/08 Q1018
20:30
V
12 °C 10 km+ - 220° 220° 5 kt METAR DAAG 291930Z 22005KT 9999 FEW023 12/08 Q1018
20:00
V
12 °C 10 km+ - 210° 210° 5 kt METAR DAAG 291900Z 21005KT 9999 FEW023 12/08 Q1018
19:30
V
12 °C 10 km+ - 210° 210° 5 kt METAR DAAG 291830Z 21005KT 9999 FEW023 12/08 Q1018
19:00
V
13 °C 10 km+ - 230° 230° 6 kt METAR DAAG 291800Z 23006KT 9999 FEW023 13/08 Q1018
18:30
V
14 °C 10 km+ - 240° 240° 6 kt METAR DAAG 291730Z 24006KT 9999 SCT023 FEW026CB SCT040 14/08 Q1018
18:00
V
13 °C 10 km+ - 270° 270° 6 kt METAR DAAG 291700Z 27006KT 9999 SCT023 FEW026CB SCT040 13/08 Q1018
17:30
V
15 °C 10 km+ - 290° 290° 8 kt METAR DAAG 291630Z 29008KT 9999 SCT023 FEW026CB SCT040 15/09 Q1018
17:00
V
16 °C 10 km+ - 290° 290° 8 kt METAR DAAG 291600Z 29008KT 9999 SCT023 FEW026CB SCT040 16/09 Q1018
16:30
V
16 °C 10 km+ - Var Var 3 kt METAR DAAG 291530Z VRB03KT 9999 SCT023 FEW026CB SCT040 16/09 Q1018
16:00
V
15 °C 10 km+ - 260° 260° 4 kt METAR DAAG 291500Z 26004KT 9999 -RA SCT023 FEW026CB SCT040 15/11 Q1018
15:30
V
16 °C 8 km - 350° 350° 10 kt METAR DAAG 291430Z 35010KT 300V010 8000 -RA SCT023 FEW026CB SCT040 16/11 Q1018
15:00
V
15 °C 10 km+ - 280° 280° 9 kt METAR DAAG 291400Z 28009KT 250V310 9999 SCT023 FEW026CB SCT040 15/11 Q1018
14:30
V
15 °C 10 km+ - 330° 330° 5 kt METAR DAAG 291330Z 33005KT 300V360 9999 SCT023 FEW026CB SCT040 15/11 Q1018
14:00
V
16 °C 10 km+ - 350° 350° 7 kt METAR DAAG 291300Z 35007KT 320V020 9999 SCT023 FEW026CB SCT040 16/12 Q1018
13:30
V
16 °C 10 km+ - 340° 340° 7 kt METAR DAAG 291230Z 34007KT 310V010 9999 -RA SCT023 FEW026CB SCT040 16/11 Q1018
13:00
V
16 °C 10 km+ - 340° 340° 7 kt METAR DAAG 291200Z 34007KT 290V010 9999 SCT023 FEW026CB SCT040 16/11 Q1019
12:30
V
16 °C 10 km+ - 300° 300° 13 kt METAR DAAG 291130Z 30013KT 9999 SCT023 FEW026CB SCT040 16/09 Q1019
12:00
V
15 °C 10 km+ - 310° 310° 11 kt METAR DAAG 291100Z 31011KT 290V360 9999 -RA SCT023 FEW026CB SCT040 15/10 Q1019
11:30
V
16 °C 10 km+ - 250° 250° 9 kt METAR DAAG 291030Z 25009KT 210V280 9999 FEW023 FEW026CB SCT036 16/11 Q1020
11:00
V
15 °C 10 km+ - 180° 180° 3 kt METAR DAAG 291000Z 18003KT 140V220 9999 FEW023 FEW026CB SCT036 15/11 Q1020
10:30
V
15 °C 10 km+ - 220° 220° 4 kt METAR DAAG 290930Z 22004KT 9999 SCT023 FEW026CB SCT036 15/11 Q1020
10:00
V
13 °C 10 km+ - 200° 200° 5 kt METAR DAAG 290900Z 20005KT 9999 SCT023 FEW026CB SCT036 13/10 Q1020
09:30
V
13 °C 10 km+ - 200° 200° 5 kt METAR DAAG 290830Z 20005KT 160V230 9999 FEW023 FEW026CB SCT036 13/11 Q1019
09:00
V
12 °C 10 km+ - Var Var 3 kt METAR DAAG 290800Z VRB03KT 9999 FEW023 FEW026CB SCT036 12/10 Q1019
08:30
V
12 °C 10 km+ - 200° 200° 4 kt METAR DAAG 290730Z 20004KT 150V220 9999 SCT023TCU FEW026CB 12/10 Q1019
08:00
V
12 °C 10 km+ - 210° 210° 5 kt METAR DAAG 290700Z 21005KT 9999 SCT023 FEW026TCU SCT036 12/10 Q1019 RERA
07:30
V
12 °C 10 km+ - 200° 200° 3 kt METAR DAAG 290630Z 20003KT 160V230 9999 SCT023 FEW026TCU SCT036 12/10 Q1019 RERA
07:00
V
11 °C 10 km+ 7.000 ft 200° 200° 3 kt METAR DAAG 290600Z 20003KT 150V250 9999 RA FEW023 FEW026TCU BKN070 11/10 Q1018
06:30
V
12 °C 10 km+ - 200° 200° 5 kt METAR DAAG 290530Z 20005KT 9999 FEW023 SCT070 12/10 Q1018
06:00
V
13 °C 10 km+ - 220° 220° 3 kt METAR DAAG 290500Z 22003KT 9999 FEW023 SCT036 13/09 Q1018
05:30
V
13 °C 10 km+ - 210° 210° 4 kt METAR DAAG 290430Z 21004KT 9999 FEW023 SCT040 13/09 Q1018
05:00
V
12 °C 10 km+ - 220° 220° 5 kt METAR DAAG 290400Z 22005KT 190V250 9999 FEW023 SCT040 12/09 Q1018
04:30
V
11 °C 10 km+ - 190° 190° 5 kt METAR DAAG 290330Z 19005KT 150V220 9999 FEW023 SCT040 11/08 Q1018
04:00
V
12 °C 10 km+ - 210° 210° 5 kt METAR DAAG 290300Z 21005KT 180V250 9999 FEW023 SCT070 12/08 Q1018
03:30
V
12 °C 10 km+ - 200° 200° 6 kt METAR DAAG 290230Z 20006KT 9999 FEW023 12/08 Q1019

Nous et des tiers suivons ton comportement Internet sur notre site Web à l'aide de cookies. Si tu continues, nous supposons que tu es d'accord avec notre Politique en matière de cookies.